Time;durP1;ratioP1;P1;durP2;ratioP2;P2;SDS_P1;SDS_P2;PMS_P1;PMS_P2;Temp;Humidity;BMP_temperature;BMP_pressure;BME280_temperature;BME280_humidity;BME280_pressure;Samples;Min_cycle;Max_cycle;Signal;HPM_P1;HPM_P2
2023/04/25 00:01:30;;;;;;;5.10;3.70;;;;;;;8.12;100.00;98112.28;5032667;28;20229;-65
2023/04/25 00:03:58;;;;;;;6.53;3.70;;;;;;;8.12;100.00;98113.13;5027328;28;20283;-65
2023/04/25 00:06:26;;;;;;;7.27;3.60;;;;;;;8.11;100.00;98106.28;5034116;28;20229;-65
2023/04/25 00:08:53;;;;;;;4.20;3.53;;;;;;;8.07;100.00;98110.16;5025001;28;20259;-66
2023/04/25 00:11:19;;;;;;;6.23;3.50;;;;;;;8.03;100.00;98111.41;5033176;28;20248;-66
2023/04/25 00:13:46;;;;;;;6.13;3.30;;;;;;;8.01;100.00;98100.34;5030742;28;20256;-66
2023/04/25 00:16:14;;;;;;;5.47;2.90;;;;;;;8.01;99.82;98107.31;5034594;28;20626;-66
2023/04/25 00:18:40;;;;;;;4.03;2.80;;;;;;;7.98;97.98;98098.03;5014574;28;20760;-66
2023/04/25 00:21:08;;;;;;;5.27;2.53;;;;;;;7.97;98.67;98107.59;5033270;28;20234;-66
2023/04/25 00:23:36;;;;;;;8.07;2.60;;;;;;;7.92;97.59;98099.44;5032047;28;20245;-66
2023/04/25 00:26:03;;;;;;;5.33;2.33;;;;;;;7.93;96.00;98101.09;5031152;28;20239;-66
2023/04/25 00:28:30;;;;;;;4.83;2.30;;;;;;;7.90;94.48;98103.97;5035349;28;20226;-66
2023/04/25 00:30:56;;;;;;;3.83;2.50;;;;;;;7.95;91.39;98100.94;5009832;28;20295;-66
2023/04/25 00:33:23;;;;;;;3.40;2.30;;;;;;;7.95;92.68;98093.94;5032344;28;20642;-66
2023/04/25 00:35:49;;;;;;;6.73;2.20;;;;;;;7.90;94.57;98092.75;5010016;28;20225;-66
2023/04/25 00:38:17;;;;;;;2.77;2.20;;;;;;;7.85;96.47;98095.81;5015379;28;20246;-66
2023/04/25 00:40:44;;;;;;;5.93;2.70;;;;;;;7.85;95.80;98093.22;5030675;28;20237;-66
2023/04/25 00:43:10;;;;;;;3.47;2.23;;;;;;;7.85;95.72;98089.78;5034032;28;20316;-66
2023/04/25 00:45:39;;;;;;;7.20;3.10;;;;;;;7.82;97.55;98085.69;5033386;28;20230;-66
2023/04/25 00:48:06;;;;;;;3.80;2.37;;;;;;;7.83;98.77;98082.13;5028240;28;20763;-66
2023/04/25 00:50:34;;;;;;;5.70;2.30;;;;;;;7.82;99.99;98089.09;5014335;28;20229;-66
2023/04/25 00:53:01;;;;;;;4.83;2.60;;;;;;;7.82;100.00;98102.09;5030340;28;20343;-66
2023/04/25 00:55:31;;;;;;;3.10;2.40;;;;;;;7.79;100.00;98102.38;5030788;28;20226;-66
2023/04/25 00:57:57;;;;;;;4.10;2.57;;;;;;;7.81;100.00;98092.66;5029571;28;20705;-66
2023/04/25 01:00:24;;;;;;;4.50;2.70;;;;;;;7.77;100.00;98093.13;5035558;28;20222;-66
2023/04/25 01:02:51;;;;;;;5.00;2.07;;;;;;;7.80;100.00;98093.63;5011317;28;20236;-66
2023/04/25 01:05:18;;;;;;;5.17;2.10;;;;;;;7.80;97.46;98096.22;5015237;28;20296;-66
2023/04/25 01:07:45;;;;;;;4.47;2.17;;;;;;;7.86;97.65;98092.25;5033060;28;20310;-66
2023/04/25 01:10:12;;;;;;;5.23;2.40;;;;;;;7.87;97.79;98098.25;5024597;28;20312;-67
2023/04/25 01:12:40;;;;;;;4.83;2.70;;;;;;;7.88;98.98;98103.31;5016445;28;20228;-67
2023/04/25 01:15:07;;;;;;;6.13;2.57;;;;;;;7.85;96.81;98089.78;5016801;28;20304;-67
2023/04/25 01:17:35;;;;;;;3.67;2.63;;;;;;;7.81;93.91;98087.47;5019253;28;20229;-67
2023/04/25 01:20:04;;;;;;;5.17;2.37;;;;;;;7.83;95.84;98087.34;5015565;28;20699;-66
2023/04/25 01:22:32;;;;;;;3.33;2.47;;;;;;;7.86;97.10;98086.22;5022858;28;20233;-66
2023/04/25 01:24:59;;;;;;;3.53;2.70;;;;;;;7.86;96.44;98084.44;5014034;28;20243;-66
2023/04/25 01:27:26;;;;;;;4.40;2.70;;;;;;;7.86;97.43;98087.03;5017102;28;20221;-66
2023/04/25 01:29:55;;;;;;;3.27;2.37;;;;;;;7.84;98.10;98086.38;5014269;28;20238;-66
2023/04/25 01:32:23;;;;;;;3.67;2.27;;;;;;;7.87;99.92;98082.66;5017133;28;20229;-66
2023/04/25 01:34:55;;;;;;;4.23;2.67;;;;;;;7.79;100.00;98094.59;5031415;28;20817;-66
2023/04/25 01:37:21;;;;;;;7.00;2.80;;;;;;;7.78;100.00;98097.34;5009106;28;20221;-66
2023/04/25 01:39:54;;;;;;;8.50;2.90;;;;;;;7.74;100.00;98089.00;5022261;28;20227;-66
2023/04/25 01:42:23;;;;;;;4.07;2.87;;;;;;;7.73;100.00;98087.38;5015936;28;20317;-66
2023/04/25 01:44:53;;;;;;;3.07;2.77;;;;;;;7.73;100.00;98077.00;5022206;28;20217;-66
2023/04/25 01:47:20;;;;;;;8.03;3.20;;;;;;;7.72;100.00;98077.94;5024378;28;20291;-66
2023/04/25 01:49:53;;;;;;;7.10;2.80;;;;;;;7.75;100.00;98092.44;5028949;28;20233;-66
2023/04/25 01:52:19;;;;;;;4.13;2.80;;;;;;;7.72;100.00;98090.94;5013516;28;20230;-66
2023/04/25 01:54:55;;;;;;;5.37;3.43;;;;;;;7.72;100.00;98085.75;5010629;28;20726;-66
2023/04/25 01:57:22;;;;;;;4.90;3.17;;;;;;;7.69;100.00;98091.22;5014817;28;20221;-66
2023/04/25 01:59:59;;;;;;;5.07;3.10;;;;;;;7.67;100.00;98088.78;5017601;28;20297;-66
2023/04/25 02:02:40;;;;;;;6.60;3.60;;;;;;;7.64;100.00;98088.25;5033036;28;20569;-66
2023/04/25 02:05:35;;;;;;;5.53;3.37;;;;;;;7.65;100.00;98087.28;5012649;28;20230;-66
2023/04/25 02:08:03;;;;;;;6.33;3.40;;;;;;;7.63;100.00;98090.03;5013664;28;20294;-66
2023/04/25 02:10:31;;;;;;;6.90;3.77;;;;;;;7.64;100.00;98093.44;5018006;28;20705;-66
2023/04/25 02:13:13;;;;;;;5.87;4.00;;;;;;;7.62;100.00;98084.97;5013761;28;20224;-65
2023/04/25 02:16:03;;;;;;;7.93;3.90;;;;;;;7.67;100.00;98085.38;5023175;28;22604;-66
2023/04/25 02:18:31;;;;;;;7.73;3.90;;;;;;;7.70;100.00;98084.28;5026752;28;20313;-66
2023/04/25 02:20:58;;;;;;;7.77;4.50;;;;;;;7.73;100.00;98076.19;5024938;28;20235;-66
2023/04/25 02:23:25;;;;;;;7.33;4.50;;;;;;;7.71;100.00;98076.31;5035629;28;20571;-66
2023/04/25 02:25:55;;;;;;;6.63;3.97;;;;;;;7.67;100.00;98075.81;5034648;28;20224;-66
2023/04/25 02:28:21;;;;;;;6.37;4.30;;;;;;;7.73;100.00;98079.59;5031920;28;20577;-66
2023/04/25 02:30:48;;;;;;;7.10;4.00;;;;;;;7.73;100.00;98089.19;5015331;28;20692;-66
2023/04/25 02:33:16;;;;;;;8.27;4.40;;;;;;;7.74;100.00;98083.00;5035191;28;20585;-66
2023/04/25 02:35:43;;;;;;;5.40;4.00;;;;;;;7.74;100.00;98076.03;5016788;28;20685;-66
2023/04/25 02:38:12;;;;;;;6.77;4.10;;;;;;;7.77;100.00;98082.72;5015399;28;20226;-66
2023/04/25 02:40:40;;;;;;;5.63;4.17;;;;;;;7.75;100.00;98080.25;5036811;28;20232;-66
2023/04/25 02:43:08;;;;;;;5.73;4.03;;;;;;;7.73;100.00;98077.00;5016874;28;20283;-66
2023/04/25 02:45:35;;;;;;;6.00;3.87;;;;;;;7.73;100.00;98069.19;5016314;28;20214;-66
2023/04/25 02:48:01;;;;;;;6.10;4.10;;;;;;;7.75;100.00;98066.47;5014958;28;20226;-66
2023/04/25 02:50:31;;;;;;;7.97;3.67;;;;;;;7.72;100.00;98057.16;5020565;28;20226;-66
2023/04/25 02:52:58;;;;;;;6.23;4.10;;;;;;;7.74;100.00;98057.84;5015194;28;20238;-66
2023/04/25 02:55:30;;;;;;;5.00;3.47;;;;;;;7.74;100.00;98059.63;5019414;28;20778;-66
2023/04/25 02:57:57;;;;;;;9.30;4.13;;;;;;;7.69;100.00;98054.84;5024422;28;20228;-66
2023/04/25 03:00:37;;;;;;;5.53;3.97;;;;;;;7.72;100.00;98048.56;5016940;28;20237;-66
2023/04/25 03:03:04;;;;;;;6.23;4.70;;;;;;;7.72;100.00;98046.78;5016830;28;20828;-66
2023/04/25 03:05:31;;;;;;;5.70;3.57;;;;;;;7.70;100.00;98045.31;5017002;28;20282;-66
2023/04/25 03:07:57;;;;;;;13.80;4.00;;;;;;;7.69;100.00;98049.66;5031142;28;20244;-66
2023/04/25 03:10:24;;;;;;;8.60;4.33;;;;;;;7.71;100.00;98046.94;5016752;28;20236;-66
2023/04/25 03:12:51;;;;;;;4.37;3.97;;;;;;;7.71;100.00;98049.53;5023363;28;20230;-66
2023/04/25 03:15:18;;;;;;;7.10;4.73;;;;;;;7.67;100.00;98038.59;5026436;28;20231;-66
2023/04/25 03:17:46;;;;;;;5.93;4.00;;;;;;;7.66;100.00;98036.97;5013978;28;20225;-66
2023/04/25 03:20:13;;;;;;;4.23;3.50;;;;;;;7.68;100.00;98035.88;5016043;28;20225;-66
2023/04/25 03:22:39;;;;;;;6.40;4.00;;;;;;;7.64;100.00;98023.31;5017360;28;20798;-66
2023/04/25 03:25:07;;;;;;;5.33;3.93;;;;;;;7.63;100.00;98026.88;5012957;28;20280;-66
2023/04/25 03:27:35;;;;;;;7.37;4.13;;;;;;;7.63;100.00;98025.09;5017317;28;20243;-66
2023/04/25 03:32:55;;;;;;;9.70;5.00;;;;;;;7.66;100.00;98035.19;5073380;22;20222;-66
2023/04/25 03:35:23;;;;;;;7.43;4.10;;;;;;;7.65;100.00;98036.16;4976229;28;20671;-66
2023/04/25 03:37:51;;;;;;;6.93;4.17;;;;;;;7.65;100.00;98037.94;4983029;28;20285;-66
2023/04/25 03:40:23;;;;;;;9.10;7.13;;;;;;;7.63;100.00;98035.50;5001046;28;20229;-66
2023/04/25 03:43:15;;;;;;;8.53;5.90;;;;;;;7.64;100.00;98029.34;4976115;28;20235;-66
2023/04/25 03:45:48;;;;;;;6.37;4.97;;;;;;;7.61;100.00;98026.19;4953290;28;20237;-66
2023/04/25 03:48:17;;;;;;;6.97;4.10;;;;;;;7.61;100.00;98019.25;4956216;28;20233;-66
2023/04/25 03:50:44;;;;;;;4.73;3.60;;;;;;;7.56;100.00;98020.63;4954299;28;20226;-66
2023/04/25 03:53:10;;;;;;;6.73;5.23;;;;;;;7.56;100.00;98020.63;4956308;28;20333;-66
2023/04/25 03:55:57;;;;;;;5.87;4.20;;;;;;;7.59;100.00;98022.94;4972147;28;20318;-66
2023/04/25 03:58:24;;;;;;;5.90;5.35;;;;;;;7.54;100.00;98013.81;4982120;28;20849;-66
2023/04/25 04:00:50;;;;;;;8.47;6.03;;;;;;;7.53;100.00;98024.34;4978080;28;20322;-66
2023/04/25 04:03:20;;;;;;;6.00;5.10;;;;;;;7.55;100.00;98017.22;4975287;28;20278;-66
2023/04/25 04:05:47;;;;;;;6.40;4.90;;;;;;;7.52;100.00;98020.13;4981448;28;20255;-66
2023/04/25 04:08:13;;;;;;;5.40;4.63;;;;;;;7.53;100.00;98019.16;4925574;28;20233;-66
2023/04/25 04:10:40;;;;;;;5.30;3.60;;;;;;;7.50;100.00;98017.66;4973998;28;20228;-65
2023/04/25 04:13:10;;;;;;;6.90;4.03;;;;;;;7.50;100.00;98017.66;4975508;28;20239;-66
2023/04/25 04:15:37;;;;;;;7.97;4.10;;;;;;;7.53;100.00;98014.75;4963974;28;20332;-66
2023/04/25 04:18:04;;;;;;;7.03;3.90;;;;;;;7.53;100.00;98008.75;4970822;28;20242;-66
2023/04/25 04:20:32;;;;;;;5.13;3.50;;;;;;;7.50;100.00;98003.88;4978676;28;20226;-66
2023/04/25 04:22:59;;;;;;;4.73;3.10;;;;;;;7.52;100.00;98010.53;4981051;28;20483;-67
2023/04/25 04:25:26;;;;;;;4.20;3.40;;;;;;;7.49;100.00;98015.22;4987842;28;20226;-66
2023/04/25 04:28:05;;;;;;;6.97;3.43;;;;;;;7.50;100.00;98011.66;4970783;28;20270;-66
2023/04/25 04:30:55;;;;;;;6.00;4.90;;;;;;;7.49;100.00;98010.81;4980607;28;20254;-66
2023/04/25 04:33:23;;;;;;;8.57;4.53;;;;;;;7.50;100.00;98009.06;4976614;28;20321;-66
2023/04/25 04:35:57;;;;;;;6.03;4.53;;;;;;;7.53;100.00;98004.38;4983400;28;20234;-66
2023/04/25 04:38:23;;;;;;;7.67;3.77;;;;;;;7.52;100.00;98002.75;4975755;28;20254;-66
2023/04/25 04:40:53;;;;;;;7.77;3.87;;;;;;;7.51;100.00;98001.09;4960962;28;20230;-66
2023/04/25 04:43:46;;;;;;;10.17;3.90;;;;;;;7.51;100.00;98003.69;4946923;28;20291;-66
2023/04/25 04:46:30;;;;;;;5.30;4.07;;;;;;;7.47;100.00;98011.94;4979640;28;20324;-66
2023/04/25 04:49:28;;;;;;;6.77;3.50;;;;;;;7.42;100.00;98009.78;4922321;28;20237;-66
2023/04/25 04:52:32;;;;;;;6.30;3.77;;;;;;;7.48;100.00;98013.59;4954292;28;20247;-66
2023/04/25 04:55:21;;;;;;;5.40;3.33;;;;;;;7.51;100.00;98018.47;4989938;28;20217;-66
2023/04/25 04:58:23;;;;;;;5.93;3.75;;;;;;;7.50;100.00;98022.84;4889086;29;20451;-66
2023/04/25 05:01:19;;;;;;;5.00;3.40;;;;;;;7.53;100.00;98027.75;4897216;28;20269;-66
2023/04/25 05:04:24;;;;;;;5.63;3.70;;;;;;;7.61;100.00;98028.78;4954160;28;20265;-66
2023/04/25 05:07:00;;;;;;;3.83;3.27;;;;;;;7.68;100.00;98033.28;4972194;28;20335;-66
2023/04/25 05:09:46;;;;;;;3.67;3.17;;;;;;;7.72;100.00;98028.59;4962734;28;20262;-66
2023/04/25 05:12:18;;;;;;;4.20;3.43;;;;;;;7.77;100.00;98026.38;4975298;28;20250;-66
2023/04/25 05:14:58;;;;;;;9.83;4.00;;;;;;;7.74;100.00;98031.06;4969625;28;20238;-66
2023/04/25 05:17:47;;;;;;;7.40;4.10;;;;;;;7.76;100.00;98029.13;4978847;28;20318;-66
2023/04/25 05:20:46;;;;;;;7.60;3.73;;;;;;;7.73;100.00;98038.00;4948895;28;20242;-66
2023/04/25 05:23:27;;;;;;;5.43;4.60;;;;;;;7.73;100.00;98030.22;4965264;28;20232;-66
2023/04/25 05:26:18;;;;;;;13.67;7.17;;;;;;;7.69;100.00;98036.69;4991550;28;20232;-66
2023/04/25 05:29:01;;;;;;;9.43;4.20;;;;;;;7.63;100.00;98030.31;4969898;28;20231;-66
2023/04/25 05:31:37;;;;;;;5.47;3.13;;;;;;;7.73;100.00;98034.63;4986549;28;20359;-66
2023/04/25 05:34:13;;;;;;;4.93;3.10;;;;;;;7.61;100.00;98040.03;4960748;28;20230;-66
2023/04/25 05:36:48;;;;;;;6.57;3.40;;;;;;;7.65;100.00;98036.16;4989611;28;20311;-66
2023/04/25 05:39:16;;;;;;;7.87;4.07;;;;;;;7.50;100.00;98040.22;4990555;28;20257;-66
2023/04/25 05:42:13;;;;;;;7.70;3.73;;;;;;;7.41;100.00;98049.72;4961380;28;20329;-66
2023/04/25 05:44:51;;;;;;;6.37;3.83;;;;;;;7.42;100.00;98050.50;4974799;28;20248;-66
2023/04/25 05:47:56;;;;;;;5.73;4.20;;;;;;;7.39;100.00;98056.81;4978814;28;20244;-66
2023/04/25 05:50:34;;;;;;;8.03;4.80;;;;;;;7.36;100.00;98052.72;4973779;28;20579;-66
2023/04/25 05:53:05;;;;;;;6.90;4.33;;;;;;;7.31;100.00;98057.53;4974692;28;20245;-66
2023/04/25 05:55:43;;;;;;;7.70;4.30;;;;;;;7.37;100.00;98061.34;4995724;28;20229;-66
2023/04/25 05:58:22;;;;;;;7.97;4.30;;;;;;;7.41;100.00;98057.50;4973922;28;20358;-66
2023/04/25 06:00:49;;;;;;;7.73;4.73;;;;;;;7.38;100.00;98063.78;4964664;28;20593;-66
2023/04/25 06:03:17;;;;;;;8.50;6.85;;;;;;;7.37;100.00;98069.13;4992708;28;20535;-66
2023/04/25 06:05:45;;;;;;;7.70;5.17;;;;;;;7.28;100.00;98067.41;4973255;28;20237;-66
2023/04/25 06:08:12;;;;;;;8.13;6.20;;;;;;;7.28;100.00;98076.00;4975828;28;20713;-66
2023/04/25 06:10:38;;;;;;;9.50;6.83;;;;;;;7.26;100.00;98070.13;4981684;28;20757;-66
2023/04/25 06:13:06;;;;;;;7.73;5.20;;;;;;;7.32;100.00;98074.75;4985176;28;20229;-66
2023/04/25 06:15:36;;;;;;;6.67;4.53;;;;;;;7.33;100.00;98080.78;4994680;28;20447;-66
2023/04/25 06:18:02;;;;;;;6.77;4.73;;;;;;;7.31;100.00;98077.50;4986205;28;20233;-66
2023/04/25 06:20:29;;;;;;;6.03;4.43;;;;;;;7.24;100.00;98080.66;4982718;28;20320;-66
2023/04/25 06:22:59;;;;;;;6.83;5.17;;;;;;;7.31;100.00;98085.28;4982116;28;20253;-66
2023/04/25 06:25:35;;;;;;;7.23;4.63;;;;;;;7.22;100.00;98077.41;4960209;28;20266;-66
2023/04/25 06:28:02;;;;;;;5.80;4.60;;;;;;;7.32;100.00;98079.13;4985896;28;20233;-66
2023/04/25 06:30:29;;;;;;;8.17;4.50;;;;;;;7.28;100.00;98083.78;4983495;28;20221;-66
2023/04/25 06:33:03;;;;;;;21.40;15.77;;;;;;;7.34;100.00;98085.81;4983936;28;20268;-66
2023/04/25 06:35:32;;;;;;;8.27;6.67;;;;;;;7.40;100.00;98081.84;4992983;28;20229;-66
2023/04/25 06:37:59;;;;;;;9.77;6.97;;;;;;;7.34;100.00;98080.59;4957115;28;20223;-66
2023/04/25 06:40:26;;;;;;;12.17;7.93;;;;;;;7.39;100.00;98090.59;4964978;28;20237;-66
2023/04/25 06:42:53;;;;;;;8.03;5.57;;;;;;;7.43;100.00;98089.31;4974220;28;20353;-66
2023/04/25 06:45:58;;;;;;;9.50;6.73;;;;;;;7.36;100.00;98098.66;4976503;28;20253;-66
2023/04/25 06:48:29;;;;;;;37.93;19.73;;;;;;;7.26;100.00;98090.88;4960216;28;20303;-65
2023/04/25 06:50:56;;;;;;;20.97;13.93;;;;;;;7.34;100.00;98096.19;4974935;28;20239;-65
2023/04/25 06:53:23;;;;;;;8.67;5.73;;;;;;;7.40;100.00;98094.81;4962197;28;20255;-65
2023/04/25 06:55:58;;;;;;;6.37;4.87;;;;;;;7.51;100.00;98104.97;4971211;28;20329;-65
2023/04/25 06:58:29;;;;;;;8.73;5.20;;;;;;;7.38;100.00;98107.94;4968072;28;20250;-65
2023/04/25 07:00:56;;;;;;;8.17;5.17;;;;;;;7.38;100.00;98112.31;4972661;28;20577;-65
2023/04/25 07:03:25;;;;;;;7.33;5.07;;;;;;;7.41;100.00;98113.78;4980549;28;20226;-65
2023/04/25 07:05:57;;;;;;;8.10;5.90;;;;;;;7.41;100.00;98117.22;4970096;28;21091;-65
2023/04/25 07:08:25;;;;;;;8.37;5.60;;;;;;;7.42;100.00;98116.22;4974058;28;20226;-65
2023/04/25 07:10:51;;;;;;;6.80;4.70;;;;;;;7.45;100.00;98125.53;4952888;28;20262;-65
2023/04/25 07:13:18;;;;;;;7.73;5.20;;;;;;;7.44;100.00;98122.09;4989657;28;20235;-65
2023/04/25 07:15:47;;;;;;;8.90;5.30;;;;;;;7.34;100.00;98123.94;4967077;28;20244;-65
2023/04/25 07:18:14;;;;;;;5.90;4.63;;;;;;;7.29;100.00;98118.38;4969082;28;20658;-65
2023/04/25 07:20:41;;;;;;;5.60;3.73;;;;;;;7.30;100.00;98118.22;4977994;28;20715;-65
2023/04/25 07:23:09;;;;;;;6.23;4.37;;;;;;;7.31;100.00;98126.81;4994304;28;20247;-65
2023/04/25 07:25:36;;;;;;;5.77;4.10;;;;;;;7.37;100.00;98123.66;4994865;28;20373;-65
2023/04/25 07:28:03;;;;;;;6.43;4.17;;;;;;;7.35;100.00;98131.56;4984498;28;20254;-65
2023/04/25 07:30:29;;;;;;;8.70;4.63;;;;;;;7.31;100.00;98132.81;4989973;28;20246;-65
2023/04/25 07:32:56;;;;;;;6.03;4.43;;;;;;;7.30;100.00;98146.75;4989817;28;20234;-64
2023/04/25 07:35:23;;;;;;;6.93;5.00;;;;;;;7.08;100.00;98146.13;4985933;28;20226;-65
2023/04/25 07:37:50;;;;;;;8.87;5.23;;;;;;;7.08;100.00;98143.53;4995565;28;20628;-65
2023/04/25 07:40:20;;;;;;;7.90;5.57;;;;;;;7.13;100.00;98153.53;4966395;28;20698;-65
2023/04/25 07:42:54;;;;;;;9.13;6.30;;;;;;;7.19;100.00;98154.72;4986777;28;20228;-65
2023/04/25 07:45:32;;;;;;;5.33;3.83;;;;;;;7.12;100.00;98159.66;4979612;28;20242;-66
2023/04/25 07:47:58;;;;;;;6.90;5.43;;;;;;;7.09;100.00;98160.75;4982727;28;20285;-65
2023/04/25 07:50:26;;;;;;;5.10;4.27;;;;;;;7.14;100.00;98173.31;4968437;28;20312;-65
2023/04/25 07:52:53;;;;;;;6.40;3.87;;;;;;;7.15;100.00;98168.94;4973503;28;20296;-65
2023/04/25 07:55:29;;;;;;;5.17;3.40;;;;;;;7.22;100.00;98181.22;4978835;28;20238;-65
2023/04/25 07:58:15;;;;;;;6.78;3.50;;;;;;;7.14;100.00;98178.50;4982709;28;20929;-64
2023/04/25 08:00:43;;;;;;;4.30;3.23;;;;;;;7.17;100.00;98185.19;4975439;28;20584;-65
2023/04/25 08:03:37;;;;;;;5.87;3.07;;;;;;;7.17;100.00;98193.81;4986272;28;20236;-65
2023/04/25 08:06:09;;;;;;;3.23;2.60;;;;;;;7.08;100.00;98194.63;4989272;28;20229;-65
2023/04/25 08:08:45;;;;;;;2.60;2.17;;;;;;;6.97;100.00;98205.16;4975908;28;20233;-65
2023/04/25 08:11:15;;;;;;;5.70;3.77;;;;;;;6.81;100.00;98216.13;4973432;28;20234;-65
2023/04/25 08:13:42;;;;;;;3.73;3.00;;;;;;;6.74;100.00;98224.44;4960836;28;20585;-65
2023/04/25 08:16:09;;;;;;;4.90;2.93;;;;;;;6.81;100.00;98231.69;4970541;28;20227;-65
2023/04/25 08:18:36;;;;;;;10.37;4.30;;;;;;;6.65;100.00;98225.25;4982727;28;20713;-65
2023/04/25 08:21:02;;;;;;;2.90;2.70;;;;;;;6.59;100.00;98244.75;4980644;28;20320;-65
2023/04/25 08:23:30;;;;;;;4.70;2.43;;;;;;;6.65;100.00;98239.03;4974072;28;20237;-65
2023/04/25 08:26:08;;;;;;;3.47;2.43;;;;;;;6.81;100.00;98248.06;4976209;28;20237;-65
2023/04/25 08:28:39;;;;;;;3.00;2.20;;;;;;;6.71;100.00;98257.59;4992330;28;20571;-64
2023/04/25 08:31:07;;;;;;;2.80;2.40;;;;;;;6.63;100.00;98255.69;4980397;28;20241;-64
2023/04/25 08:33:42;;;;;;;4.70;2.37;;;;;;;6.84;100.00;98265.13;4977260;28;20228;-64
2023/04/25 08:36:20;;;;;;;2.83;2.00;;;;;;;6.96;100.00;98258.81;4991177;28;20224;-65
2023/04/25 08:38:47;;;;;;;2.33;1.83;;;;;;;7.02;100.00;98270.47;4954726;28;20736;-65
2023/04/25 08:41:15;;;;;;;5.13;2.60;;;;;;;7.05;100.00;98273.56;4974788;28;20641;-64
2023/04/25 08:43:44;;;;;;;2.60;1.73;;;;;;;7.11;100.00;98277.41;4987229;28;20222;-64
2023/04/25 08:46:13;;;;;;;2.97;1.30;;;;;;;7.09;100.00;98276.75;4971072;28;20230;-64
2023/04/25 08:48:50;;;;;;;3.13;2.20;;;;;;;7.10;100.00;98286.16;4979148;28;20215;-64
2023/04/25 08:51:24;;;;;;;1.70;1.60;;;;;;;7.19;100.00;98277.56;4979150;28;20238;-65
2023/04/25 08:53:52;;;;;;;2.73;1.13;;;;;;;7.14;100.00;98284.94;4978078;28;20229;-65
2023/04/25 08:56:22;;;;;;;0.90;0.90;;;;;;;7.13;100.00;98285.88;4973975;28;20499;-65
2023/04/25 08:58:51;;;;;;;2.37;0.90;;;;;;;7.18;100.00;98291.50;4962960;28;20234;-65
2023/04/25 09:01:18;;;;;;;1.30;0.83;;;;;;;7.21;100.00;98299.00;4973446;28;20314;-65
2023/04/25 09:03:50;;;;;;;0.90;0.80;;;;;;;7.20;100.00;98293.94;4968653;28;20232;-64
2023/04/25 09:06:18;;;;;;;1.70;1.00;;;;;;;7.09;100.00;98297.50;4961347;28;20234;-64
2023/04/25 09:08:45;;;;;;;1.73;1.20;;;;;;;7.05;100.00;98298.72;4985922;28;20252;-64
2023/04/25 09:11:14;;;;;;;1.53;0.80;;;;;;;6.89;100.00;98305.28;4995534;28;20240;-64
2023/04/25 09:13:40;;;;;;;1.80;1.20;;;;;;;6.91;100.00;98303.38;4979529;28;20235;-64
2023/04/25 09:16:24;;;;;;;2.30;1.53;;;;;;;6.92;100.00;98314.53;4995480;28;21116;-64
2023/04/25 09:19:22;;;;;;;2.20;1.37;;;;;;;6.84;100.00;98311.84;4986451;28;20593;-64
2023/04/25 09:21:50;;;;;;;1.57;1.47;;;;;;;6.78;100.00;98315.75;4973918;28;20234;-64
2023/04/25 09:24:16;;;;;;;2.83;1.10;;;;;;;6.78;100.00;98320.97;4990691;28;20236;-64
2023/04/25 09:26:43;;;;;;;0.70;0.70;;;;;;;6.69;99.92;98319.16;4946468;28;20234;-64
2023/04/25 09:29:10;;;;;;;0.87;0.50;;;;;;;6.75;100.00;98318.63;4961632;28;20241;-64
2023/04/25 09:31:42;;;;;;;0.50;0.50;;;;;;;6.75;100.00;98326.41;4955228;28;20227;-64
2023/04/25 09:34:15;;;;;;;0.50;0.43;;;;;;;6.91;100.00;98334.50;4986962;28;20237;-64
2023/04/25 09:36:46;;;;;;;0.87;0.40;;;;;;;6.97;100.00;98333.13;4976759;28;20311;-64
2023/04/25 09:39:39;;;;;;;0.40;0.40;;;;;;;7.07;100.00;98338.34;4967543;28;20584;-64
2023/04/25 09:42:12;;;;;;;1.17;0.80;;;;;;;7.11;100.00;98333.69;4978025;28;20347;-65
2023/04/25 09:44:43;;;;;;;0.90;0.70;;;;;;;7.29;100.00;98346.81;4952897;28;20233;-65
2023/04/25 09:47:13;;;;;;;0.70;0.50;;;;;;;7.47;100.00;98342.56;4958641;28;20710;-65
2023/04/25 09:49:44;;;;;;;0.73;0.50;;;;;;;7.58;100.00;98349.41;4985206;28;20239;-65
2023/04/25 09:52:16;;;;;;;0.57;0.43;;;;;;;7.90;100.00;98352.63;4989689;28;20801;-65
2023/04/25 09:54:56;;;;;;;1.20;0.70;;;;;;;8.10;100.00;98349.00;4974853;28;20238;-65
2023/04/25 09:57:30;;;;;;;0.93;0.57;;;;;;;8.23;97.44;98355.69;4989119;28;20317;-65
2023/04/25 10:00:08;;;;;;;2.20;1.00;;;;;;;8.07;99.23;98358.88;4986499;28;20231;-65
2023/04/25 10:02:43;;;;;;;0.67;0.47;;;;;;;7.45;97.19;98357.47;4974292;28;20801;-65
2023/04/25 10:05:15;;;;;;;0.40;0.40;;;;;;;7.64;97.68;98354.03;4959847;28;20255;-65
2023/04/25 10:07:42;;;;;;;1.43;0.40;;;;;;;7.45;99.80;98354.06;4962141;28;20598;-65
2023/04/25 10:10:14;;;;;;;0.67;0.57;;;;;;;7.48;100.00;98359.78;4970098;28;20237;-65
2023/04/25 10:12:43;;;;;;;1.87;0.40;;;;;;;7.28;100.00;98364.16;4988470;28;20731;-65
2023/04/25 10:15:11;;;;;;;0.80;0.63;;;;;;;7.75;100.00;98368.66;4992769;28;20623;-65
2023/04/25 10:17:38;;;;;;;0.63;0.60;;;;;;;7.93;100.00;98371.38;4991036;28;20226;-65
2023/04/25 10:20:10;;;;;;;1.70;1.30;;;;;;;7.88;98.51;98367.53;4971171;28;20713;-65
2023/04/25 10:22:40;;;;;;;1.97;0.70;;;;;;;8.13;98.44;98366.09;4971757;28;20249;-65
2023/04/25 10:25:08;;;;;;;0.80;0.50;;;;;;;8.11;96.25;98373.22;4987898;28;20227;-65
2023/04/25 10:27:35;;;;;;;1.00;0.83;;;;;;;8.19;96.22;98375.13;4995804;28;20273;-65
2023/04/25 10:30:04;;;;;;;0.90;0.80;;;;;;;8.15;95.95;98374.56;4992728;28;20314;-66
2023/04/25 10:32:32;;;;;;;2.00;0.67;;;;;;;8.43;100.00;98382.44;4990624;28;20245;-66
2023/04/25 10:34:58;;;;;;;1.60;0.80;;;;;;;8.54;98.14;98381.44;4969002;28;20642;-66
2023/04/25 10:37:26;;;;;;;0.70;0.60;;;;;;;8.46;95.35;98376.13;4985071;28;20291;-65
2023/04/25 10:39:54;;;;;;;1.53;1.03;;;;;;;8.34;100.00;98371.13;4989053;28;20449;-65
2023/04/25 10:42:20;;;;;;;1.60;1.40;;;;;;;8.56;99.46;98376.91;4994738;28;20227;-65
2023/04/25 10:45:03;;;;;;;1.63;1.33;;;;;;;8.76;100.00;98374.22;4976852;28;20232;-65
2023/04/25 10:47:36;;;;;;;2.00;1.43;;;;;;;8.95;99.51;98374.13;4988407;28;20233;-65
2023/04/25 10:50:06;;;;;;;1.23;1.00;;;;;;;9.39;97.82;98380.41;4979350;28;20606;-65
2023/04/25 10:52:34;;;;;;;1.93;1.57;;;;;;;9.57;98.34;98381.19;4982432;28;20250;-65
2023/04/25 10:55:04;;;;;;;3.63;1.83;;;;;;;9.55;98.71;98379.72;4992118;28;20234;-65
2023/04/25 10:57:33;;;;;;;1.90;1.00;;;;;;;9.53;96.71;98381.66;4995218;28;20306;-65
2023/04/25 11:00:09;;;;;;;2.50;1.60;;;;;;;9.41;89.32;98383.69;4981940;28;20241;-65
2023/04/25 11:02:39;;;;;;;4.43;1.47;;;;;;;9.46;90.83;98386.66;4984648;28;20326;-65
2023/04/25 11:05:06;;;;;;;2.53;1.60;;;;;;;9.48;92.63;98387.31;4987862;28;20712;-65
2023/04/25 11:07:39;;;;;;;3.13;1.97;;;;;;;8.85;94.85;98381.16;4995028;28;20230;-65
2023/04/25 11:10:08;;;;;;;3.00;2.20;;;;;;;9.00;95.68;98384.09;4994673;28;20249;-65
2023/04/25 11:12:34;;;;;;;2.77;2.23;;;;;;;8.98;95.07;98392.03;4989593;28;20307;-65
2023/04/25 11:15:03;;;;;;;3.40;2.13;;;;;;;9.13;96.44;98381.94;4996535;28;20243;-65
2023/04/25 11:17:30;;;;;;;3.17;2.20;;;;;;;9.16;95.68;98386.84;4978562;28;20234;-65
2023/04/25 11:19:57;;;;;;;2.57;2.10;;;;;;;8.99;96.22;98392.88;4984220;28;20243;-65
2023/04/25 11:22:24;;;;;;;3.07;2.10;;;;;;;9.04;99.57;98395.84;4990055;28;20240;-65
2023/04/25 11:24:54;;;;;;;2.67;2.00;;;;;;;9.18;100.00;98397.13;4978616;28;20231;-65
2023/04/25 11:27:24;;;;;;;2.93;2.43;;;;;;;9.30;100.00;98393.34;4970763;28;20285;-65
2023/04/25 11:29:53;;;;;;;2.90;2.40;;;;;;;9.49;100.00;98395.94;4973929;28;20286;-65
2023/04/25 11:32:20;;;;;;;3.27;2.03;;;;;;;9.73;99.62;98385.72;4998920;28;20679;-65
2023/04/25 11:35:12;;;;;;;2.80;1.97;;;;;;;10.04;100.00;98387.91;4993606;28;20283;-65
2023/04/25 11:37:40;;;;;;;2.43;2.13;;;;;;;10.14;96.19;98393.00;4987227;28;20286;-65
2023/04/25 11:40:09;;;;;;;2.43;2.03;;;;;;;10.29;90.50;98400.25;4986851;28;20235;-65
2023/04/25 11:42:38;;;;;;;2.23;1.60;;;;;;;10.61;89.66;98394.41;4995370;28;20236;-65
2023/04/25 11:45:07;;;;;;;3.07;2.43;;;;;;;10.85;89.79;98394.66;4990422;28;20242;-65
2023/04/25 11:47:35;;;;;;;3.33;2.33;;;;;;;11.26;86.28;98400.00;4994634;28;20268;-65
2023/04/25 11:50:02;;;;;;;3.07;1.70;;;;;;;11.75;86.80;98403.59;4989558;28;20298;-65
2023/04/25 11:52:39;;;;;;;2.57;1.87;;;;;;;12.18;82.27;98399.03;4975187;28;20234;-65
2023/04/25 11:55:10;;;;;;;2.87;2.00;;;;;;;12.39;78.41;98410.75;4986926;28;20273;-65
2023/04/25 11:57:38;;;;;;;2.33;1.53;;;;;;;12.60;77.58;98401.53;4987750;28;20265;-65